Owensville, Indiana
Current Conditions -  °F | °C
As of 2:54 PM on Sunday 21 Dec 2014 (Local Time) from KEVV Reporting Station
Clear Clear  
Wind Chill: 41°   Ceiling: Unl
Heat Index: 45°   Visibility: 10mi
Dew Point: 31°   Wind: 8mph
Humidity: 58%   Direction: 90°E
Pressure: 30.12"   Gusts: NA
Location:  38.27°N, 87.69°W
Report Text: KEVV 212054Z 09007KT 10SM CLR 07/M01 A3012 RMK AO2 SLP203 T00721006 56034
Loading
Personal Weather Stations






























Interactive Weather Map New forecast layout! Learn more

10-Day Weather Forecast

Advertisements
Track Severe Weather on mobile